Katowice, Poland
Current Conditions -  °F | °C
As of 11:30 AM on Saturday 25 Oct 2014 (Local Time) from EPKT Reporting Station
Scattered Clouds Scattered Clouds  
Wind Chill: 41°   Ceiling: Unl
Heat Index: 45°   Visibility: 6mi
Dew Point: 36°   Wind: 7mph
Humidity: 71%   Direction: 140°SE
Pressure: 30.24"   Gusts: NA
Location:  50.26°N, 19.02°E
Report Text: EPKT 250930Z 14006KT 090V210 9999 SCT023 07/02 Q1024
Loading
Personal Weather Stations






























Interactive Weather Map
Tropical Storm Tracking
New forecast layout! Learn more

10-Day Weather Forecast

Advertisements
Track Severe Weather on mobile